• Join FlightAware (Why Join?)
  • Login
  • US Flag 
07:19PM EST


 

Airport Tracker/Info


-or-


 

Live Flight TrackerFlight Track Log ✈ N966QS ✈ 27-Apr-2013 ✈ KCLT - KIAD

Flight Track Log - Related Links

Times and Time Zones

All times are in EDT time to prevent confusion due to time zone crossing. See the N966QS flight status page for this flight to view local times or setup timezone preferences in your user account.

Time Position Orientation Groundspeed Altitude Reporting Facility
EDT Latitude Longitude Course Direction KTS MPH feet Rate Location/Type
06:03PM 35.1972 -80.9381 166° South 177 204 1,800  Level Atlanta Center
06:04PM 35.1444 -80.9222 166° South 238 274 5,200 3,960 Climbing Atlanta Center
06:05PM 35.0969 -80.8503 129° Southeast 283 326 9,500 3,840 Climbing Atlanta Center
06:06PM 35.1281 -80.7678 65° Northeast 280 322 13,000 2,040 Climbing Atlanta Center
06:07PM 35.1733 -80.6719 60° Northeast 323 372 14,000 1,440 Climbing Atlanta Center
06:09PM 35.2697 -80.4764 59° Northeast 349 402 17,400 1,920 Climbing Washington Center
06:10PM 35.3219 -80.3703 59° Northeast 349 402 19,500 2,280 Climbing Washington Center
06:11PM 35.3742 -80.2664 58° Northeast 349 402 22,000 2,220 Climbing Washington Center
06:12PM 35.4264 -80.1547 60° Northeast 359 413 24,000 1,860 Climbing Washington Center
06:13PM 35.4625 -80.0267 71° East 376 433 25,800 1,860 Climbing Washington Center
06:14PM 35.4986 -79.8936 72° East 397 457 27,700 1,800 Climbing Washington Center
06:15PM 35.5350 -79.7525 72° East 419 482 29,400 1,500 Climbing Washington Center
06:16PM 35.5714 -79.6011 73° East 438 504 30,800 1,320 Climbing Washington Center
06:17PM 35.6119 -79.4447 72° East 469 540 32,200 1,320 Climbing Washington Center
06:18PM 35.6711 -79.2967 64° Northeast 474 545 33,600 900 Climbing Washington Center
06:19PM 35.7806 -79.1944 37° Northeast 474 545 34,000 -360 Climbing Washington Center
06:20PM 35.9000 -79.1025 32° Northeast 479 551 32,900 -1,320 Descending Washington Center
06:21PM 36.0217 -79.0128 31° Northeast 490 564 31,400 -1,440 Descending Washington Center
06:22PM 36.1433 -78.9178 32° Northeast 501 577 30,000 -1,440 Descending Washington Center
06:23PM 36.2606 -78.8300 31° Northeast 506 582 28,600 -1,500 Descending Washington Center
06:24PM 36.3797 -78.7369 32° Northeast 506 582 27,100 -840 Descending Washington Center
06:25PM 36.4989 -78.6461 31° Northeast 506 582 27,000 -60 Descending Washington Center
06:26PM 36.6161 -78.5522 33° Northeast 506 582 27,000  Level Washington Center
06:27PM 36.7225 -78.4683 32° Northeast 506 582 27,000  Level Washington Center
06:28PM 36.8394 -78.3767 32° Northeast 501 577 27,000 -120 Level Washington Center
06:29PM 36.9733 -78.2697 33° Northeast 509 586 26,800 -300 Descending Washington Center
06:30PM 37.0922 -78.1747 33° Northeast 509 586 26,500 -720 Descending Washington Center
06:31PM 37.1961 -78.0922 32° Northeast 504 580 25,400 -1,200 Descending Washington Center
06:32PM 37.3083 -78.0044 32° Northeast 486 559 24,200 -1,200 Descending Washington Center
06:33PM 37.4186 -77.9139 33° Northeast 476 548 23,100 -1,140 Descending Washington Center
06:34PM 37.5289 -77.8308 31° Northeast 470 541 22,000 -1,740 Descending Washington Center
06:35PM 37.6425 -77.7633 25° Northeast 457 526 19,600 -2,040 Descending Washington Center
06:36PM 37.7503 -77.6981 26° Northeast 433 498 18,000 -1,920 Descending Washington Center
06:37PM 37.8556 -77.6353 25° Northeast 422 486 15,800 -1,980 Descending Washington Center
06:38PM 37.9567 -77.5750 25° Northeast 412 474 14,100 -1,800 Descending Washington Center
06:39PM 38.0639 -77.5197 22° Northeast 392 451 12,200 -1,680 Descending Washington Center
06:40PM 38.1461 -77.4717 25° Northeast 355 409 10,800 -1,140 Descending Washington Center
06:41PM 38.2175 -77.4286 25° Northeast 311 358 10,000 -720 Descending Washington Center
06:42PM 38.2892 -77.3825 27° Northeast 290 334 9,500 -840 Descending Washington Center
06:43PM 38.3606 -77.3578 15° North 271 312 8,400 -1,320 Descending Washington Center
06:44PM 38.4375 -77.3622 357° North 265 305 6,900 -1,200 Descending Washington Center
06:45PM 38.5125 -77.3642 359° North 265 305 6,100 -660 Descending Washington Center
06:46PM 38.5897 -77.3686 357° North 271 312 5,700 -900 Descending Washington Center
06:46PM 38.6333 -77.3667 North 269 310 4,700 -1,020 Descending Potomac TRACON
06:47PM 38.7167 -77.3667 360° North 257 296 4,000 -360 Descending Potomac TRACON
06:48PM 38.7833 -77.3500 11° North 271 312 4,000 -300 Level Potomac TRACON
06:49PM 38.8667 -77.3500 360° North 268 308 3,400 -540 Descending Potomac TRACON
06:50PM 38.9333 -77.3500 360° North 248 285 3,000 -360 Descending Potomac TRACON
06:51PM 39.0000 -77.3500 360° North 246 283 2,700 -600 Descending Potomac TRACON
06:52PM 39.0167 -77.4333 284° West 198 228 1,900 -1,020 Descending Potomac TRACON
06:53PM 38.9833 -77.4667 218° Southwest 166 191 700 -1,200 Descending Potomac TRACON
06:55PM 38.9474 -77.4599 195° South  Level Estimated
07:02PM 38.9474 -77.4599 195° South  Level Estimated
07:03PM 38.9474 -77.4599 195° South  Level Estimated
07:04PM 38.9474 -77.4599 195° South  Level Estimated
07:05PM 38.9474 -77.4599 195° South  Level Estimated